Time;durP1;ratioP1;P1;durP2;ratioP2;P2;SDS_P1;SDS_P2;PMS_P1;PMS_P2;Temp;Humidity;BMP_temperature;BMP_pressure;BME280_temperature;BME280_humidity;BME280_pressure;Samples;Min_cycle;Max_cycle;Signal;HPM_P1;HPM_P2
2021/08/23 00:01:35;;;;;;;52.58;37.65;;;;;;;18.14;57.07;93815.41;5053759;28;20437;-46
2021/08/23 00:04:00;;;;;;;47.90;30.80;;;;;;;18.14;56.79;93821.00;5053417;28;20041;-45
2021/08/23 00:06:26;;;;;;;38.13;24.50;;;;;;;18.04;57.31;93818.19;5053315;28;20028;-45
2021/08/23 00:08:51;;;;;;;28.00;25.45;;;;;;;18.05;57.21;93822.47;5053612;28;20032;-45
2021/08/23 00:11:17;;;;;;;35.40;27.15;;;;;;;17.94;57.35;93817.47;5053482;28;20032;-45
2021/08/23 00:13:42;;;;;;;47.08;31.13;;;;;;;17.82;58.03;93827.75;5051202;28;20460;-44
2021/08/23 00:16:08;;;;;;;33.67;27.13;;;;;;;17.80;58.25;93819.22;5052447;28;20513;-44
2021/08/23 00:18:33;;;;;;;35.00;28.27;;;;;;;17.84;58.25;93833.50;5053411;28;20028;-44
2021/08/23 00:21:02;;;;;;;41.35;31.90;;;;;;;17.79;57.98;93825.41;5053297;28;20029;-44
2021/08/23 00:23:28;;;;;;;50.88;30.15;;;;;;;17.66;58.13;93809.06;5053007;28;20532;-45
2021/08/23 00:25:53;;;;;;;47.03;23.98;;;;;;;17.77;58.57;93825.25;5053320;28;20029;-44
2021/08/23 00:28:19;;;;;;;35.63;24.42;;;;;;;17.72;58.60;93823.47;5053064;28;20104;-46
2021/08/23 00:30:45;;;;;;;36.08;27.33;;;;;;;17.72;58.80;93817.91;5052834;28;20029;-44
2021/08/23 00:33:10;;;;;;;35.95;23.15;;;;;;;17.74;58.74;93821.56;5053104;28;20036;-44
2021/08/23 00:35:36;;;;;;;39.88;26.67;;;;;;;17.70;59.22;93815.69;5053000;28;20040;-44
2021/08/23 00:38:02;;;;;;;33.97;25.27;;;;;;;17.65;59.15;93822.28;5052671;28;20032;-44
2021/08/23 00:40:27;;;;;;;44.85;27.42;;;;;;;17.64;59.40;93817.31;5052828;28;20037;-45
2021/08/23 00:42:53;;;;;;;33.88;25.13;;;;;;;17.60;59.91;93826.13;5052343;28;20104;-44
2021/08/23 00:45:20;;;;;;;39.85;21.40;;;;;;;17.58;59.75;93823.19;5068682;28;20024;-45
2021/08/23 00:47:45;;;;;;;27.80;21.83;;;;;;;17.51;59.77;93821.25;5071402;28;20029;-44
2021/08/23 00:50:11;;;;;;;36.25;20.63;;;;;;;17.54;59.55;93824.94;5072668;28;20078;-44
2021/08/23 00:52:37;;;;;;;32.33;17.83;;;;;;;17.48;59.79;93821.69;5072730;28;20036;-45
2021/08/23 00:55:03;;;;;;;40.20;27.10;;;;;;;17.42;60.20;93824.75;5051580;28;20103;-45
2021/08/23 00:57:28;;;;;;;42.40;21.83;;;;;;;17.39;59.75;93825.91;5052566;28;20047;-43
2021/08/23 00:59:54;;;;;;;32.25;24.63;;;;;;;17.19;60.14;93816.78;5052268;28;20086;-44
2021/08/23 01:02:34;;;;;;;37.65;20.52;;;;;;;17.20;60.19;93829.38;5051233;28;20029;-44
2021/08/23 01:05:36;;;;;;;24.70;21.20;;;;;;;17.23;59.83;93825.44;5052237;28;20029;-44
2021/08/23 01:08:06;;;;;;;36.88;18.10;;;;;;;16.97;60.88;93825.50;5050868;28;20044;-44
2021/08/23 01:10:37;;;;;;;35.63;23.55;;;;;;;17.02;60.92;93825.22;5052110;28;20504;-43
2021/08/23 01:13:06;;;;;;;24.08;15.23;;;;;;;16.94;61.99;93826.66;5052082;28;20028;-44
2021/08/23 01:15:32;;;;;;;37.42;18.70;;;;;;;16.94;62.07;93821.06;5052276;28;20067;-44
2021/08/23 01:17:58;;;;;;;31.58;20.55;;;;;;;16.92;61.97;93821.66;5052132;28;20032;-46
2021/08/23 01:20:24;;;;;;;25.52;15.93;;;;;;;16.87;62.49;93816.38;5052262;28;20486;-44
2021/08/23 01:22:50;;;;;;;27.75;16.20;;;;;;;16.83;62.15;93822.34;5052188;28;20482;-44
2021/08/23 01:25:20;;;;;;;23.25;16.38;;;;;;;16.84;62.20;93821.06;5052017;28;20081;-44
2021/08/23 01:28:03;;;;;;;36.80;14.73;;;;;;;16.73;62.44;93807.66;5051877;28;20553;-45
2021/08/23 01:30:35;;;;;;;25.67;15.43;;;;;;;16.76;62.90;93816.91;5052019;28;20071;-45
2021/08/23 01:33:01;;;;;;;26.92;17.38;;;;;;;16.78;63.06;93808.69;5063220;28;20050;-46
2021/08/23 01:35:27;;;;;;;16.20;14.32;;;;;;;16.75;63.44;93807.81;5081450;28;20036;-45
2021/08/23 01:37:52;;;;;;;29.08;15.38;;;;;;;16.64;63.45;93783.25;5091947;28;20024;-45
2021/08/23 01:40:18;;;;;;;15.48;12.35;;;;;;;16.77;63.52;93802.38;5092045;28;20036;-45
2021/08/23 01:42:43;;;;;;;32.67;17.70;;;;;;;16.79;63.34;93799.00;5078295;28;20413;-45
2021/08/23 01:45:09;;;;;;;19.70;12.55;;;;;;;16.82;63.23;93800.63;5055607;28;20410;-46
2021/08/23 01:47:35;;;;;;;31.30;16.17;;;;;;;16.77;62.42;93796.81;5051768;28;20514;-46
2021/08/23 01:50:01;;;;;;;27.60;18.58;;;;;;;16.80;61.83;93792.84;5051333;28;20032;-46
2021/08/23 01:52:26;;;;;;;20.85;16.25;;;;;;;16.68;62.02;93797.50;5051619;28;20039;-46
2021/08/23 01:54:52;;;;;;;16.83;12.20;;;;;;;16.66;62.38;93797.34;5069545;28;20024;-45
2021/08/23 01:57:20;;;;;;;32.53;18.27;;;;;;;16.62;62.25;93800.56;5071398;28;20029;-46
2021/08/23 01:59:49;;;;;;;17.35;12.30;;;;;;;16.53;62.56;93795.69;5071551;28;20044;-48
2021/08/23 02:02:14;;;;;;;17.75;16.08;;;;;;;16.53;63.10;93790.09;5071077;28;20024;-46
2021/08/23 02:04:40;;;;;;;13.48;12.13;;;;;;;16.39;62.97;93800.13;5071325;28;20070;-46
2021/08/23 02:07:05;;;;;;;16.15;13.70;;;;;;;16.33;63.25;93808.00;5071283;28;20052;-47
2021/08/23 02:09:31;;;;;;;23.90;14.63;;;;;;;16.17;63.88;93794.84;5071294;28;20082;-47
2021/08/23 02:11:56;;;;;;;17.13;13.63;;;;;;;16.18;63.97;93799.84;5071219;28;20024;-45
2021/08/23 02:14:22;;;;;;;32.45;18.08;;;;;;;16.17;64.35;93792.06;5071040;28;20026;-45
2021/08/23 02:16:47;;;;;;;21.85;13.43;;;;;;;16.12;64.62;93793.81;5070753;28;20058;-46
2021/08/23 02:19:13;;;;;;;13.73;12.13;;;;;;;16.14;64.58;93787.66;5070435;28;20020;-47
2021/08/23 02:21:54;;;;;;;24.25;14.15;;;;;;;16.10;64.94;93787.31;5070149;28;20024;-45
2021/08/23 02:24:21;;;;;;;17.92;13.43;;;;;;;16.11;64.55;93788.81;5070447;28;20020;-46
2021/08/23 02:26:46;;;;;;;25.45;16.10;;;;;;;16.04;65.14;93779.25;5070935;28;20014;-45
2021/08/23 02:29:12;;;;;;;14.57;11.60;;;;;;;16.05;64.26;93780.69;5070571;28;20103;-44
2021/08/23 02:31:37;;;;;;;15.32;12.77;;;;;;;16.03;64.38;93780.53;5070798;28;20028;-44
2021/08/23 02:34:03;;;;;;;9.88;8.77;;;;;;;15.88;64.66;93764.03;5070447;28;20555;-46
2021/08/23 02:36:29;;;;;;;11.02;9.98;;;;;;;15.98;64.55;93780.81;5070537;28;20036;-46
2021/08/23 02:38:55;;;;;;;27.42;12.52;;;;;;;15.94;64.00;93781.22;5070714;28;20504;-45
2021/08/23 02:41:21;;;;;;;18.88;10.75;;;;;;;15.90;64.35;93783.69;5069909;28;20046;-45
2021/08/23 02:43:46;;;;;;;24.40;14.20;;;;;;;15.78;64.12;93777.16;5067062;28;20028;-46
2021/08/23 02:46:12;;;;;;;26.08;15.10;;;;;;;15.77;64.60;93781.97;5050033;28;20037;-45
2021/08/23 02:48:37;;;;;;;16.42;11.70;;;;;;;15.80;64.39;93782.88;5050565;28;20032;-46
2021/08/23 02:51:03;;;;;;;15.57;12.30;;;;;;;15.74;64.17;93787.97;5048901;28;20112;-46
2021/08/23 02:53:28;;;;;;;17.55;13.90;;;;;;;15.67;64.26;93775.63;5062085;28;20032;-44
2021/08/23 02:55:54;;;;;;;19.27;15.55;;;;;;;15.67;64.56;93780.44;5070097;28;20028;-46
2021/08/23 02:58:19;;;;;;;14.38;9.35;;;;;;;15.65;64.69;93780.28;5069876;28;20024;-45
2021/08/23 03:00:44;;;;;;;27.27;14.07;;;;;;;15.60;64.92;93781.25;5070341;28;20085;-45
2021/08/23 03:03:10;;;;;;;21.38;12.90;;;;;;;15.55;64.74;93773.91;5069907;28;20089;-45
2021/08/23 03:05:35;;;;;;;18.42;12.43;;;;;;;15.42;64.42;93772.13;5070012;28;20029;-45
2021/08/23 03:08:01;;;;;;;15.57;14.00;;;;;;;15.39;64.52;93780.91;5069897;28;20036;-45
2021/08/23 03:10:26;;;;;;;29.00;14.85;;;;;;;15.35;64.94;93788.94;5069828;28;20036;-45
2021/08/23 03:12:52;;;;;;;26.75;15.05;;;;;;;15.32;64.68;93793.59;5070130;28;20059;-45
2021/08/23 03:15:17;;;;;;;15.80;11.48;;;;;;;15.11;64.95;93759.88;5069795;28;20705;-44
2021/08/23 03:17:43;;;;;;;15.57;10.50;;;;;;;15.25;64.64;93788.81;5070074;28;20104;-44
2021/08/23 03:20:09;;;;;;;20.70;11.75;;;;;;;15.21;65.02;93785.72;5069934;28;20163;-45
2021/08/23 03:22:34;;;;;;;21.42;12.82;;;;;;;15.22;65.38;93783.69;5070139;28;20489;-45
2021/08/23 03:24:59;;;;;;;24.05;12.93;;;;;;;15.15;65.45;93780.41;5069645;28;20493;-44
2021/08/23 03:27:25;;;;;;;16.75;10.27;;;;;;;15.14;66.13;93775.41;5070023;28;20021;-44
2021/08/23 03:29:53;;;;;;;11.70;10.30;;;;;;;15.14;65.91;93772.63;5070015;28;20497;-44
2021/08/23 03:32:18;;;;;;;13.68;12.25;;;;;;;15.15;65.97;93776.88;5069360;28;20123;-46
2021/08/23 03:34:44;;;;;;;21.40;15.98;;;;;;;15.10;66.20;93781.38;5069547;28;20112;-44
2021/08/23 03:37:09;;;;;;;25.13;14.48;;;;;;;15.14;66.16;93770.56;5069753;28;20021;-44
2021/08/23 03:39:34;;;;;;;24.52;12.10;;;;;;;15.13;65.96;93773.94;5051271;28;20028;-44
2021/08/23 03:42:00;;;;;;;10.10;8.45;;;;;;;15.10;65.76;93773.03;5056386;28;20039;-45
2021/08/23 03:44:25;;;;;;;23.15;14.02;;;;;;;15.06;65.48;93781.03;5069491;28;20025;-46
2021/08/23 03:46:52;;;;;;;19.58;11.05;;;;;;;15.04;65.33;93777.34;5069353;28;20040;-46
2021/08/23 03:49:18;;;;;;;22.38;12.45;;;;;;;15.04;65.50;93775.31;5053411;28;20067;-45
2021/08/23 03:51:44;;;;;;;20.90;11.85;;;;;;;14.91;65.68;93777.66;5049792;28;20494;-46
2021/08/23 03:54:09;;;;;;;17.35;12.43;;;;;;;14.90;65.98;93779.69;5048460;28;20472;-44
2021/08/23 03:56:35;;;;;;;21.27;12.50;;;;;;;14.89;65.97;93780.28;5053441;28;20021;-45
2021/08/23 03:59:00;;;;;;;12.98;10.27;;;;;;;14.84;66.44;93786.78;5076957;28;20225;-45
2021/08/23 04:01:26;;;;;;;14.93;11.73;;;;;;;14.85;65.82;93780.69;5068023;28;20036;-45
2021/08/23 04:03:51;;;;;;;17.25;12.95;;;;;;;14.91;65.89;93781.19;5066460;28;20489;-45
2021/08/23 04:06:17;;;;;;;11.75;9.80;;;;;;;14.87;66.05;93797.53;5066737;28;20645;-46
2021/08/23 04:08:43;;;;;;;21.30;11.57;;;;;;;14.90;66.03;93787.31;5066880;28;20516;-44
2021/08/23 04:11:13;;;;;;;20.95;13.18;;;;;;;14.85;66.27;93794.59;5066829;28;20053;-45
2021/08/23 04:13:39;;;;;;;20.33;12.07;;;;;;;14.74;66.45;93783.19;5066356;28;20033;-46
2021/08/23 04:16:05;;;;;;;17.60;11.25;;;;;;;14.83;66.72;93786.06;5067176;28;20050;-45
2021/08/23 04:18:31;;;;;;;23.90;12.57;;;;;;;14.86;66.53;93790.47;5067911;28;20039;-44
2021/08/23 04:20:56;;;;;;;19.00;11.80;;;;;;;14.91;66.80;93783.22;5069513;28;20036;-45
2021/08/23 04:23:22;;;;;;;11.95;10.73;;;;;;;14.99;66.20;93792.22;5069422;28;20024;-44
2021/08/23 04:25:47;;;;;;;15.25;9.15;;;;;;;15.07;65.32;93787.34;5069008;28;20387;-44
2021/08/23 04:28:13;;;;;;;15.82;14.30;;;;;;;15.03;65.36;93790.50;5069343;28;20103;-45
2021/08/23 04:30:38;;;;;;;14.15;12.63;;;;;;;15.03;65.87;93792.56;5068701;28;20520;-44
2021/08/23 04:33:04;;;;;;;10.77;9.82;;;;;;;15.03;66.15;93795.34;5068062;28;20024;-46
2021/08/23 04:35:29;;;;;;;12.40;11.25;;;;;;;15.05;66.30;93796.25;5053304;28;20037;-46
2021/08/23 04:37:54;;;;;;;17.05;15.32;;;;;;;15.07;66.43;93795.69;5049048;28;20025;-45
2021/08/23 04:40:20;;;;;;;18.75;16.75;;;;;;;15.06;66.73;93797.72;5048844;28;20025;-45
2021/08/23 04:42:45;;;;;;;14.10;11.82;;;;;;;15.13;66.73;93793.41;5049129;28;20027;-45
2021/08/23 04:45:11;;;;;;;17.98;14.60;;;;;;;15.19;66.55;93796.69;5067744;28;20028;-46
2021/08/23 04:47:36;;;;;;;19.17;14.52;;;;;;;15.26;66.03;93797.91;5072554;28;20025;-46
2021/08/23 04:50:02;;;;;;;13.95;10.73;;;;;;;15.12;66.40;93789.88;5072377;28;20020;-46
2021/08/23 04:52:28;;;;;;;15.88;14.30;;;;;;;15.29;66.26;93791.22;5072730;28;20421;-45
2021/08/23 04:54:53;;;;;;;19.58;11.80;;;;;;;15.33;66.40;93797.84;5054291;28;20540;-44
2021/08/23 04:57:19;;;;;;;22.00;16.45;;;;;;;15.38;67.03;93787.75;5052521;28;20055;-45
2021/08/23 04:59:44;;;;;;;14.57;12.30;;;;;;;15.37;67.35;93775.19;5052342;28;20025;-45
2021/08/23 05:02:10;;;;;;;14.32;12.63;;;;;;;15.52;67.45;93786.19;5052446;28;20029;-45
2021/08/23 05:04:35;;;;;;;13.80;12.45;;;;;;;15.62;67.60;93784.94;5052620;28;20032;-44
2021/08/23 05:07:01;;;;;;;16.05;13.68;;;;;;;15.74;67.94;93785.91;5052157;28;20036;-45
2021/08/23 05:09:26;;;;;;;17.58;14.38;;;;;;;15.83;68.11;93784.53;5052271;28;20033;-44
2021/08/23 05:11:52;;;;;;;15.82;14.18;;;;;;;15.95;67.82;93785.47;5052110;28;20037;-45
2021/08/23 05:14:17;;;;;;;12.27;11.13;;;;;;;16.07;67.43;93789.22;5051933;28;20048;-44
2021/08/23 05:16:43;;;;;;;47.08;15.43;;;;;;;16.16;67.35;93785.75;5051923;28;20119;-44
2021/08/23 05:19:08;;;;;;;182.43;33.95;;;;;;;16.30;67.13;93783.34;5052186;28;20072;-44
2021/08/23 05:21:33;;;;;;;32.00;15.25;;;;;;;16.36;67.22;93784.56;5051972;28;20021;-43
2021/08/23 05:23:59;;;;;;;17.92;11.77;;;;;;;16.48;67.00;93779.91;5052114;28;20032;-45
2021/08/23 05:26:24;;;;;;;30.45;13.48;;;;;;;16.61;66.58;93787.22;5051778;28;20025;-44
2021/08/23 05:28:50;;;;;;;23.90;11.93;;;;;;;16.70;66.50;93783.69;5051764;28;20035;-45
2021/08/23 05:31:16;;;;;;;22.33;13.90;;;;;;;16.69;66.34;93773.88;5063176;28;20035;-46
2021/08/23 05:33:41;;;;;;;20.63;15.48;;;;;;;16.88;66.35;93784.34;5067395;28;20154;-45
2021/08/23 05:36:07;;;;;;;22.98;18.77;;;;;;;16.94;65.60;93779.25;5059548;28;20036;-44
2021/08/23 05:38:32;;;;;;;22.30;12.35;;;;;;;17.06;65.47;93780.91;5060935;28;20024;-46
2021/08/23 05:40:57;;;;;;;20.92;13.35;;;;;;;17.10;65.53;93769.31;5069776;28;20068;-45
2021/08/23 05:43:23;;;;;;;17.63;11.45;;;;;;;17.18;65.15;93781.81;5051085;28;20032;-44
2021/08/23 05:45:48;;;;;;;12.35;11.05;;;;;;;17.27;64.95;93783.88;5087203;28;20057;-46
2021/08/23 05:48:16;;;;;;;82.65;17.48;;;;;;;17.35;64.78;93776.09;5089671;28;20027;-45
2021/08/23 05:50:41;;;;;;;28.05;13.23;;;;;;;17.50;64.69;93779.94;5089290;28;20561;-44
2021/08/23 05:53:08;;;;;;;20.60;14.95;;;;;;;17.62;64.68;93778.06;5089752;28;20032;-44
2021/08/23 05:55:34;;;;;;;15.48;12.38;;;;;;;17.73;64.40;93777.50;5089185;28;20028;-44
2021/08/23 05:57:59;;;;;;;27.65;17.10;;;;;;;17.81;63.98;93769.69;5089193;28;20031;-45
2021/08/23 06:00:25;;;;;;;15.15;12.93;;;;;;;17.96;63.51;93769.38;5083962;28;20055;-44
2021/08/23 06:02:50;;;;;;;21.48;15.40;;;;;;;17.79;62.83;93728.38;5059869;28;20481;-44
2021/08/23 06:05:15;;;;;;;34.95;14.90;;;;;;;18.16;62.98;93768.78;5060723;28;20036;-44
2021/08/23 06:07:41;;;;;;;18.10;16.35;;;;;;;18.25;63.58;93755.38;5059525;28;20086;-43
2021/08/23 06:10:07;;;;;;;30.60;14.35;;;;;;;18.18;63.21;93740.97;5049018;28;20029;-44
2021/08/23 06:12:32;;;;;;;60.50;16.55;;;;;;;18.42;63.00;93764.28;5048463;28;20029;-46
2021/08/23 06:14:58;;;;;;;14.52;13.07;;;;;;;18.63;62.22;93764.41;5049964;28;20094;-44
2021/08/23 06:17:24;;;;;;;34.08;18.38;;;;;;;18.82;61.47;93766.38;5048485;28;20112;-44
2021/08/23 06:19:50;;;;;;;23.58;16.42;;;;;;;18.85;62.45;93765.19;5048300;28;20486;-44
2021/08/23 06:22:15;;;;;;;19.65;14.52;;;;;;;18.96;61.91;93770.16;5053111;28;20035;-43
2021/08/23 06:24:42;;;;;;;20.25;17.58;;;;;;;19.10;61.03;93767.59;5055778;28;20029;-46
2021/08/23 06:27:08;;;;;;;25.33;15.50;;;;;;;19.17;61.58;93766.63;5058972;28;20686;-44
2021/08/23 06:29:33;;;;;;;31.98;17.33;;;;;;;19.41;61.99;93773.91;5056606;28;20071;-45
2021/08/23 06:32:02;;;;;;;24.98;17.90;;;;;;;19.66;60.36;93763.69;5057406;28;20405;-44
2021/08/23 06:34:28;;;;;;;28.33;18.35;;;;;;;19.89;59.94;93760.28;5058145;28;20516;-45
2021/08/23 06:36:54;;;;;;;30.70;20.50;;;;;;;20.06;57.83;93759.22;5058034;28;20111;-44
2021/08/23 06:39:19;;;;;;;24.77;16.13;;;;;;;20.13;57.07;93758.28;5056988;28;20418;-44
2021/08/23 06:41:45;;;;;;;38.60;23.50;;;;;;;20.27;58.73;93762.03;5056154;28;20472;-44
2021/08/23 06:44:12;;;;;;;35.72;19.33;;;;;;;20.44;57.23;93761.69;5057029;28;20036;-44
2021/08/23 06:46:38;;;;;;;29.35;25.33;;;;;;;20.53;55.82;93760.13;5056851;28;20052;-45
2021/08/23 06:49:03;;;;;;;44.90;31.58;;;;;;;20.58;55.50;93756.97;5057339;28;20040;-45
2021/08/23 06:51:29;;;;;;;28.33;19.10;;;;;;;20.73;55.39;93758.56;5055477;28;20098;-45
2021/08/23 06:53:54;;;;;;;26.85;22.13;;;;;;;20.93;54.65;93762.59;5057816;28;20028;-44
2021/08/23 06:56:21;;;;;;;52.22;33.58;;;;;;;21.24;54.26;93753.97;5056617;28;20482;-46
2021/08/23 06:58:46;;;;;;;48.08;35.58;;;;;;;21.41;51.18;93762.00;5055961;28;20052;-44
2021/08/23 07:01:12;;;;;;;58.03;38.03;;;;;;;21.57;51.02;93763.66;5056047;28;20072;-44
2021/08/23 07:03:37;;;;;;;137.48;123.60;;;;;;;22.24;48.57;93761.88;5056775;28;20032;-44
2021/08/23 07:06:03;;;;;;;348.33;311.73;;;;;;;22.79;47.54;93757.91;5061903;28;20020;-45
2021/08/23 07:08:29;;;;;;;834.83;710.75;;;;;;;22.87;45.77;93760.44;5062856;28;20595;-45
2021/08/23 07:10:56;;;;;;;1999.90;999.90;;;;;;;22.73;41.14;93757.59;5059578;28;20591;-44
2021/08/23 07:13:22;;;;;;;1999.90;999.90;;;;;;;22.72;41.81;93758.22;5069963;28;20027;-45
2021/08/23 07:15:47;;;;;;;1999.90;999.90;;;;;;;22.77;41.82;93762.69;5064350;28;20036;-45
2021/08/23 07:18:13;;;;;;;1999.90;999.90;;;;;;;22.85;41.92;93755.41;5065614;28;20033;-44
2021/08/23 07:20:38;;;;;;;1999.90;999.90;;;;;;;22.99;39.26;93744.19;5081171;28;20052;-45
2021/08/23 07:23:04;;;;;;;1999.90;999.90;;;;;;;23.50;38.99;93745.47;5081606;28;20051;-46
2021/08/23 07:25:29;;;;;;;860.72;795.72;;;;;;;24.16;36.74;93750.91;5068601;28;20032;-46
2021/08/23 07:27:55;;;;;;;1015.83;901.92;;;;;;;24.86;34.21;93744.31;5068002;28;20032;-45
2021/08/23 07:30:20;;;;;;;1086.63;974.65;;;;;;;25.24;34.31;93740.41;5067730;28;20098;-44
2021/08/23 07:32:46;;;;;;;1048.88;951.45;;;;;;;26.25;32.95;93740.53;5068156;28;20039;-45
2021/08/23 07:35:12;;;;;;;947.30;850.70;;;;;;;27.29;30.17;93742.44;5068558;28;20021;-45
2021/08/23 07:37:45;;;;;;;921.95;833.88;;;;;;;28.26;29.47;93732.38;5069090;28;20114;-44
2021/08/23 07:40:11;;;;;;;973.97;880.90;;;;;;;29.25;27.59;93741.91;5069816;28;20029;-43
2021/08/23 07:42:37;;;;;;;971.85;877.08;;;;;;;29.99;25.30;93715.50;5069426;28;20024;-43
2021/08/23 07:45:02;;;;;;;1027.00;930.17;;;;;;;31.23;24.33;93733.47;5054500;28;20405;-45
2021/08/23 07:47:28;;;;;;;1007.70;920.40;;;;;;;31.95;22.91;93737.09;5049301;28;20499;-44
2021/08/23 07:49:53;;;;;;;1008.45;924.60;;;;;;;32.63;21.87;93729.75;5049702;28;20102;-46
2021/08/23 07:52:21;;;;;;;1083.65;985.00;;;;;;;31.62;23.00;93723.59;5049415;28;20025;-45
2021/08/23 07:54:47;;;;;;;1078.10;984.25;;;;;;;31.87;22.65;93736.91;5055717;28;20502;-46
2021/08/23 07:57:12;;;;;;;1099.95;999.90;;;;;;;32.02;22.79;93724.38;5069576;28;20104;-45
2021/08/23 07:59:38;;;;;;;1082.75;993.58;;;;;;;32.46;21.75;93733.72;5069711;28;20524;-44
2021/08/23 08:02:03;;;;;;;1120.32;999.90;;;;;;;31.90;22.01;93730.53;5054669;28;20494;-45
2021/08/23 08:04:29;;;;;;;1098.10;998.47;;;;;;;31.80;21.90;93733.22;5049245;28;20121;-44
2021/08/23 08:06:55;;;;;;;1072.30;982.75;;;;;;;32.42;21.92;93730.06;5049559;28;20040;-46
2021/08/23 08:09:20;;;;;;;1081.93;994.80;;;;;;;33.20;20.49;93725.59;5049552;28;20025;-45
2021/08/23 08:11:46;;;;;;;1090.25;997.10;;;;;;;33.39;20.50;93732.28;5049347;28;20486;-45
2021/08/23 08:14:11;;;;;;;1080.15;991.70;;;;;;;32.53;22.14;93728.84;5049295;28;20103;-44
2021/08/23 08:16:37;;;;;;;1074.07;987.28;;;;;;;32.28;22.38;93726.97;5049260;28;20449;-45
2021/08/23 08:19:02;;;;;;;1103.22;999.90;;;;;;;32.02;22.73;93721.50;5053657;28;20417;-44
2021/08/23 08:21:28;;;;;;;1115.00;999.90;;;;;;;31.21;24.27;93724.84;5073348;28;20032;-44
2021/08/23 08:23:53;;;;;;;1123.43;999.90;;;;;;;31.55;24.33;93725.59;5073027;28;20028;-45
2021/08/23 08:26:22;;;;;;;1151.95;999.90;;;;;;;31.82;23.78;93716.13;5073210;28;20017;-45
2021/08/23 08:28:48;;;;;;;1138.20;999.90;;;;;;;31.78;23.47;93729.59;5072840;28;20020;-44
2021/08/23 08:31:13;;;;;;;1138.68;999.90;;;;;;;31.05;24.45;93728.09;5072744;28;20034;-46
2021/08/23 08:33:38;;;;;;;1133.47;999.90;;;;;;;30.63;24.95;93724.22;5072789;28;20017;-45
2021/08/23 08:36:04;;;;;;;1143.15;999.90;;;;;;;31.60;24.76;93717.84;5073029;28;20077;-46
2021/08/23 08:38:30;;;;;;;1105.47;999.90;;;;;;;32.72;23.84;93713.44;5072583;28;20028;-45
2021/08/23 08:40:59;;;;;;;1049.50;966.42;;;;;;;34.33;20.97;93706.88;5073223;28;20028;-45
2021/08/23 08:43:26;;;;;;;1084.57;993.80;;;;;;;32.74;21.29;93708.47;5071710;28;20029;-46
2021/08/23 08:45:52;;;;;;;1062.07;977.15;;;;;;;32.58;22.32;93710.34;5052217;28;20045;-46
2021/08/23 08:48:19;;;;;;;1016.92;940.75;;;;;;;33.41;21.50;93706.56;5052594;28;20111;-44
2021/08/23 08:50:45;;;;;;;1045.07;964.38;;;;;;;34.64;21.11;93705.75;5052783;28;20091;-46
2021/08/23 08:53:10;;;;;;;1108.80;999.90;;;;;;;34.20;19.14;93702.44;5052767;28;20060;-44
2021/08/23 08:55:36;;;;;;;1123.75;999.90;;;;;;;32.01;21.41;93680.78;5052416;28;20051;-46
2021/08/23 08:58:06;;;;;;;1129.47;999.90;;;;;;;32.33;21.25;93697.78;5051142;28;20021;-46
2021/08/23 09:00:37;;;;;;;1114.70;999.90;;;;;;;31.61;21.90;93707.84;5054640;28;20048;-46
2021/08/23 09:03:03;;;;;;;1119.50;999.90;;;;;;;31.25;22.87;93702.13;5062101;28;20033;-47
2021/08/23 09:05:42;;;;;;;1117.55;999.90;;;;;;;33.13;21.54;93700.47;5049661;28;20051;-46
2021/08/23 09:08:07;;;;;;;1094.43;999.90;;;;;;;34.62;19.28;93697.13;5064999;28;20032;-45
2021/08/23 09:10:39;;;;;;;1071.72;984.58;;;;;;;35.16;18.51;93696.78;5072326;28;20040;-46
2021/08/23 09:13:10;;;;;;;1030.75;951.88;;;;;;;35.91;17.72;93686.34;5072143;28;20459;-45
2021/08/23 09:15:38;;;;;;;1073.18;961.58;;;;;;;33.60;18.83;93685.34;5071853;28;20025;-44
2021/08/23 09:18:08;;;;;;;1057.13;967.92;;;;;;;32.28;20.11;93690.53;5072355;28;20026;-44
2021/08/23 09:20:35;;;;;;;1030.85;952.83;;;;;;;32.17;21.06;93691.78;5071825;28;20024;-46
2021/08/23 09:23:13;;;;;;;1032.38;952.50;;;;;;;32.74;20.42;93688.44;5071889;28;20039;-46
2021/08/23 09:25:41;;;;;;;1034.25;953.90;;;;;;;33.78;19.38;93688.41;5072152;28;20032;-45
2021/08/23 09:28:08;;;;;;;968.30;897.40;;;;;;;33.19;19.59;93684.09;5071894;28;20111;-44
2021/08/23 09:30:34;;;;;;;1056.18;972.08;;;;;;;32.71;20.43;93683.38;5071670;28;20051;-45
2021/08/23 09:33:04;;;;;;;1002.97;926.95;;;;;;;34.25;18.45;93687.47;5072061;28;20028;-45
2021/08/23 09:35:33;;;;;;;1018.00;938.88;;;;;;;33.95;17.85;93684.28;5071896;28;20036;-46
2021/08/23 09:37:59;;;;;;;920.13;854.03;;;;;;;34.62;18.39;93685.66;5072004;28;20021;-45
2021/08/23 09:40:27;;;;;;;955.45;880.50;;;;;;;36.05;15.98;93682.81;5071799;28;20413;-46
2021/08/23 09:43:02;;;;;;;910.25;844.38;;;;;;;36.99;15.72;93685.06;5072563;28;20619;-46
2021/08/23 09:45:27;;;;;;;899.22;834.88;;;;;;;37.44;14.68;93682.81;5054074;28;20033;-44
2021/08/23 09:48:03;;;;;;;827.95;769.13;;;;;;;37.72;14.76;93671.88;5051559;28;20036;-47
2021/08/23 09:50:50;;;;;;;952.40;879.45;;;;;;;36.24;15.41;93670.63;5049523;28;20033;-46
2021/08/23 09:53:19;;;;;;;948.00;877.20;;;;;;;35.60;17.07;93667.59;5049289;28;20056;-46
2021/08/23 09:55:49;;;;;;;985.03;910.45;;;;;;;34.92;16.99;93670.78;5049466;28;20039;-45
2021/08/23 09:58:15;;;;;;;1013.00;932.53;;;;;;;35.72;16.19;93682.00;5048903;28;20137;-44
2021/08/23 10:00:42;;;;;;;994.45;917.67;;;;;;;35.94;15.05;93664.09;5059969;28;20035;-46
2021/08/23 10:03:14;;;;;;;1009.60;928.83;;;;;;;35.79;15.69;93655.44;5067768;28;20123;-46
2021/08/23 10:05:42;;;;;;;999.67;916.65;;;;;;;36.42;15.93;93650.56;5069302;28;20107;-47
2021/08/23 10:08:08;;;;;;;937.97;869.53;;;;;;;36.96;15.65;93661.31;5069142;28;20032;-45
2021/08/23 10:10:34;;;;;;;915.35;848.63;;;;;;;37.57;14.61;93649.63;5068806;28;20036;-45
2021/08/23 10:13:00;;;;;;;874.63;811.10;;;;;;;38.29;14.42;93652.13;5051682;28;20581;-46
2021/08/23 10:15:25;;;;;;;919.13;844.40;;;;;;;38.50;13.56;93646.94;5047657;28;20029;-46
2021/08/23 10:17:51;;;;;;;835.00;775.42;;;;;;;38.63;13.70;93648.25;5048827;28;20502;-45
2021/08/23 10:20:17;;;;;;;862.80;797.38;;;;;;;38.51;12.74;93648.34;5047643;28;20484;-45
2021/08/23 10:22:42;;;;;;;825.72;766.72;;;;;;;39.02;13.52;93642.88;5048514;28;20037;-46
2021/08/23 10:25:09;;;;;;;901.78;826.95;;;;;;;39.04;12.20;93648.63;5048448;28;20076;-49
2021/08/23 10:27:39;;;;;;;859.13;795.42;;;;;;;38.71;13.03;93651.09;5048643;28;20029;-43
2021/08/23 10:30:05;;;;;;;877.28;810.38;;;;;;;38.42;13.74;93644.81;5048514;28;20036;-46
2021/08/23 10:32:41;;;;;;;871.75;804.30;;;;;;;38.91;13.01;93662.47;5048570;28;20033;-45
2021/08/23 10:35:23;;;;;;;879.50;812.78;;;;;;;39.12;12.12;93655.06;5048728;28;20470;-45
2021/08/23 10:37:50;;;;;;;894.03;827.03;;;;;;;38.83;12.58;93650.28;5048226;28;20041;-46
2021/08/23 10:40:16;;;;;;;917.07;846.83;;;;;;;37.95;13.92;93635.03;5048056;28;20036;-46
2021/08/23 10:42:46;;;;;;;944.97;869.63;;;;;;;37.39;13.75;93641.78;5059086;28;20044;-46
2021/08/23 10:45:15;;;;;;;933.53;862.03;;;;;;;36.94;14.20;93635.41;5052609;28;20115;-46
2021/08/23 10:47:42;;;;;;;963.88;889.60;;;;;;;37.08;14.26;93626.00;5059121;28;20036;-46
2021/08/23 10:50:19;;;;;;;982.58;902.83;;;;;;;36.94;14.60;93629.66;5068099;28;20032;-47
2021/08/23 10:52:45;;;;;;;954.60;879.80;;;;;;;37.67;14.58;93629.41;5067585;28;20502;-45
2021/08/23 10:55:31;;;;;;;920.90;848.05;;;;;;;38.44;14.48;93636.13;5067886;28;20107;-45
2021/08/23 10:58:07;;;;;;;953.08;876.15;;;;;;;37.87;13.33;93629.31;5066550;28;20519;-46
2021/08/23 11:00:37;;;;;;;975.67;892.42;;;;;;;37.41;13.22;93632.41;5067755;28;20528;-45
2021/08/23 11:03:03;;;;;;;965.90;889.83;;;;;;;36.84;14.39;93626.75;5066600;28;20558;-47
2021/08/23 11:05:28;;;;;;;980.42;902.55;;;;;;;36.80;13.97;93626.03;5067911;28;20025;-45
2021/08/23 11:08:03;;;;;;;969.97;892.20;;;;;;;36.67;14.70;93613.84;5063385;28;20056;-46